createdAt,value
2023-06-24T00:00:40.913Z,13.40
2023-06-24T00:03:16.042Z,15.00
2023-06-24T00:05:52.972Z,14.75
2023-06-24T00:08:22.497Z,16.55
2023-06-24T00:10:52.825Z,15.80
2023-06-24T00:13:27.230Z,15.93
2023-06-24T00:15:59.645Z,14.00
2023-06-24T00:18:33.281Z,19.10
2023-06-24T00:21:00.536Z,16.77
2023-06-24T00:23:27.719Z,17.45
2023-06-24T00:25:55.631Z,17.05
2023-06-24T00:28:26.864Z,16.88
2023-06-24T00:31:00.436Z,17.75
2023-06-24T00:33:37.486Z,17.08
2023-06-24T00:36:04.988Z,15.35
2023-06-24T00:38:33.531Z,14.57
2023-06-24T00:41:01.264Z,13.13
2023-06-24T00:43:36.286Z,15.20
2023-06-24T00:46:04.442Z,19.08
2023-06-24T00:48:36.189Z,15.02
2023-06-24T00:51:06.215Z,14.95
2023-06-24T00:53:36.203Z,15.45
2023-06-24T00:56:04.206Z,16.00
2023-06-24T00:58:38.319Z,18.02
2023-06-24T01:01:09.632Z,17.92
2023-06-24T01:03:40.896Z,15.00
2023-06-24T01:06:19.015Z,16.23
2023-06-24T01:08:57.659Z,18.25
2023-06-24T01:11:33.770Z,22.90
2023-06-24T01:14:20.867Z,23.67
2023-06-24T01:17:06.570Z,25.42
2023-06-24T01:19:48.983Z,23.25
2023-06-24T01:22:58.595Z,23.75
2023-06-24T01:25:53.295Z,23.73
2023-06-24T01:28:50.031Z,22.77
2023-06-24T01:31:43.014Z,21.38
2023-06-24T01:34:37.213Z,21.67
2023-06-24T01:37:20.680Z,19.17
2023-06-24T01:39:51.804Z,19.88
2023-06-24T01:44:53.777Z,18.48
2023-06-24T01:47:35.754Z,18.08
2023-06-24T01:50:04.840Z,18.23
2023-06-24T01:52:40.989Z,18.00
2023-06-24T01:55:10.730Z,18.58
2023-06-24T01:57:40.742Z,19.98
2023-06-24T02:00:18.979Z,23.05
2023-06-24T02:02:57.811Z,22.13
2023-06-24T02:05:33.069Z,26.27
2023-06-24T02:08:08.550Z,32.47
2023-06-24T02:10:46.107Z,36.13
2023-06-24T02:13:16.339Z,33.38
2023-06-24T02:15:47.293Z,34.97
2023-06-24T02:18:24.858Z,37.50
2023-06-24T02:20:57.941Z,41.42
2023-06-24T02:23:30.684Z,41.72
2023-06-24T02:26:02.628Z,43.13
2023-06-24T02:28:33.631Z,41.13
2023-06-24T02:33:28.437Z,40.90
2023-06-24T02:35:55.517Z,38.80
2023-06-24T02:38:23.137Z,37.47
2023-06-24T02:40:50.677Z,35.72
2023-06-24T02:43:18.763Z,36.88
2023-06-24T02:45:47.593Z,37.70
2023-06-24T02:48:15.309Z,44.95
2023-06-24T02:50:45.526Z,49.45
2023-06-24T02:53:13.866Z,50.27
2023-06-24T02:55:43.317Z,48.67
2023-06-24T02:58:11.311Z,49.92
2023-06-24T03:00:39.099Z,49.03
2023-06-24T03:03:07.965Z,45.10
2023-06-24T03:05:36.741Z,37.47
2023-06-24T03:08:06.967Z,34.97
2023-06-24T03:10:33.980Z,27.65
2023-06-24T03:13:00.951Z,25.83
2023-06-24T03:15:29.482Z,24.52
2023-06-24T03:17:56.656Z,21.95
2023-06-24T03:20:25.507Z,22.08
2023-06-24T03:22:53.715Z,24.35
2023-06-24T03:25:20.634Z,21.30
2023-06-24T03:27:47.592Z,18.70
2023-06-24T03:30:16.174Z,21.02
2023-06-24T03:32:48.292Z,20.08
2023-06-24T03:35:16.724Z,18.05
2023-06-24T03:37:43.695Z,17.83
2023-06-24T03:40:11.101Z,18.08
2023-06-24T03:42:38.027Z,16.15
2023-06-24T03:45:05.574Z,17.52
2023-06-24T03:47:32.770Z,16.27
2023-06-24T03:49:59.785Z,15.40
2023-06-24T03:52:26.833Z,15.05
2023-06-24T03:54:54.689Z,15.68
2023-06-24T03:57:22.246Z,15.52
2023-06-24T03:59:49.323Z,14.93
2023-06-24T04:02:16.854Z,12.88
2023-06-24T04:04:43.801Z,16.73
2023-06-24T04:07:11.041Z,13.65
2023-06-24T04:09:37.981Z,15.35
2023-06-24T04:12:05.309Z,14.95
2023-06-24T04:14:32.486Z,14.95
2023-06-24T04:16:59.402Z,15.27
2023-06-24T04:19:26.319Z,13.38
2023-06-24T04:21:53.432Z,12.10
2023-06-24T04:24:20.424Z,14.93
2023-06-24T04:26:47.328Z,15.93
2023-06-24T04:29:14.345Z,13.20
2023-06-24T04:31:41.307Z,17.25
2023-06-24T04:34:08.324Z,13.07
2023-06-24T04:36:36.593Z,14.15
2023-06-24T04:39:03.767Z,13.48
2023-06-24T04:41:30.735Z,13.27
2023-06-24T04:43:57.735Z,13.18
2023-06-24T04:46:24.845Z,12.80
2023-06-24T04:48:51.736Z,12.93
2023-06-24T04:51:18.734Z,13.13
2023-06-24T04:53:45.671Z,12.82
2023-06-24T04:56:12.636Z,11.57
2023-06-24T04:58:39.868Z,12.35
2023-06-24T05:01:06.954Z,11.25
2023-06-24T05:03:34.044Z,11.55
2023-06-24T05:06:01.004Z,10.77
2023-06-24T05:08:27.935Z,13.82
2023-06-24T05:10:54.909Z,15.02
2023-06-24T05:13:21.835Z,14.73
2023-06-24T05:15:48.785Z,12.38
2023-06-24T05:18:15.944Z,13.10
2023-06-24T05:20:42.998Z,15.02
2023-06-24T05:23:10.170Z,12.27
2023-06-24T05:25:37.448Z,12.45
2023-06-24T05:28:04.669Z,13.73
2023-06-24T05:30:31.588Z,13.40
2023-06-24T05:32:58.523Z,11.82
2023-06-24T05:35:25.553Z,15.13
2023-06-24T05:37:52.577Z,12.73
2023-06-24T05:40:19.591Z,12.98
2023-06-24T05:42:46.565Z,12.63
2023-06-24T05:45:13.518Z,13.10
2023-06-24T05:47:40.725Z,11.65
2023-06-24T05:50:07.955Z,12.40
2023-06-24T05:52:34.863Z,12.00
2023-06-24T05:55:01.973Z,14.55
2023-06-24T05:57:28.965Z,14.50
2023-06-24T05:59:55.909Z,11.23
2023-06-24T06:02:22.952Z,11.77
2023-06-24T06:04:51.056Z,10.85
2023-06-24T06:07:18.460Z,11.27
2023-06-24T06:09:45.521Z,9.63
2023-06-24T06:12:13.131Z,12.05
2023-06-24T06:14:40.160Z,12.15
2023-06-24T06:17:07.145Z,8.55
2023-06-24T06:19:34.155Z,11.98
2023-06-24T06:22:01.182Z,9.57
2023-06-24T06:24:28.114Z,10.07
2023-06-24T06:26:55.057Z,10.00
2023-06-24T06:29:22.078Z,9.15
2023-06-24T06:31:49.021Z,10.43
2023-06-24T06:34:15.992Z,10.63
2023-06-24T06:36:42.996Z,9.73
2023-06-24T06:39:09.937Z,8.35
2023-06-24T06:41:36.866Z,8.43
2023-06-24T06:44:03.897Z,10.73
2023-06-24T06:46:30.939Z,8.55
2023-06-24T06:48:58.012Z,8.68
2023-06-24T06:51:26.300Z,8.68
2023-06-24T06:53:53.316Z,11.07
2023-06-24T06:56:27.069Z,8.40
2023-06-24T06:58:54.214Z,7.00
2023-06-24T07:01:21.763Z,7.75
2023-06-24T07:03:50.851Z,6.57
2023-06-24T07:06:20.637Z,6.57
2023-06-24T07:08:47.961Z,6.13
2023-06-24T07:11:15.027Z,6.80
2023-06-24T07:13:41.977Z,6.70
2023-06-24T07:16:09.005Z,7.78
2023-06-24T07:18:35.906Z,5.15
2023-06-24T07:21:03.259Z,5.10
2023-06-24T07:23:30.281Z,5.35
2023-06-24T07:25:57.199Z,5.55
2023-06-24T07:28:24.136Z,6.18
2023-06-24T07:30:51.525Z,5.38
2023-06-24T07:33:18.529Z,5.03
2023-06-24T07:35:45.469Z,7.57
2023-06-24T07:38:12.512Z,4.53
2023-06-24T07:40:39.630Z,4.85
2023-06-24T07:43:06.580Z,6.07
2023-06-24T07:45:33.721Z,4.72
2023-06-24T07:48:00.953Z,4.65
2023-06-24T07:50:27.937Z,3.55
2023-06-24T07:52:54.900Z,4.78
2023-06-24T07:55:21.806Z,6.75
2023-06-24T07:57:48.738Z,3.08
2023-06-24T08:00:16.667Z,3.60
2023-06-24T08:02:43.902Z,2.90
2023-06-24T08:05:11.359Z,6.70
2023-06-24T08:07:39.300Z,3.10
2023-06-24T08:10:06.956Z,3.13
2023-06-24T08:12:34.071Z,5.60
2023-06-24T08:15:01.038Z,2.72
2023-06-24T08:17:28.152Z,2.65
2023-06-24T08:19:55.233Z,2.42
2023-06-24T08:22:22.269Z,2.92
2023-06-24T08:24:49.436Z,3.88
2023-06-24T08:27:16.388Z,2.60
2023-06-24T08:29:43.311Z,2.83
2023-06-24T08:32:10.748Z,3.08
2023-06-24T08:34:37.870Z,2.67
2023-06-24T08:37:05.276Z,2.55
2023-06-24T08:39:32.230Z,2.30
2023-06-24T08:41:59.286Z,3.50
2023-06-24T08:44:26.244Z,2.95
2023-06-24T08:46:53.717Z,2.28
2023-06-24T08:49:27.353Z,2.45
2023-06-24T08:52:03.341Z,4.03
2023-06-24T08:54:32.293Z,3.22
2023-06-24T08:56:59.436Z,2.17
2023-06-24T08:59:27.717Z,2.40
2023-06-24T09:01:54.798Z,2.65
2023-06-24T09:04:21.869Z,1.85
2023-06-24T09:06:49.903Z,3.70
2023-06-24T09:09:21.319Z,2.38
2023-06-24T09:11:58.202Z,1.80
2023-06-24T09:14:31.067Z,1.70
2023-06-24T09:17:08.022Z,2.30
2023-06-24T09:19:37.596Z,1.55
2023-06-24T09:22:09.116Z,1.52
2023-06-24T09:24:37.409Z,2.15
2023-06-24T09:27:05.427Z,2.17
2023-06-24T09:29:36.639Z,2.05
2023-06-24T09:32:07.269Z,2.42
2023-06-24T09:37:01.376Z,1.90
2023-06-24T09:39:32.673Z,1.67
2023-06-24T09:42:01.744Z,2.45
2023-06-24T09:44:29.673Z,3.95
2023-06-24T09:46:57.535Z,2.10
2023-06-24T09:49:24.965Z,2.33
2023-06-24T09:52:01.526Z,2.35
2023-06-24T09:54:33.765Z,1.92
2023-06-24T09:57:04.757Z,1.48
2023-06-24T09:59:34.735Z,4.05
2023-06-24T10:02:04.750Z,2.20
2023-06-24T10:04:33.673Z,1.73
2023-06-24T10:07:01.206Z,1.77
2023-06-24T10:09:28.171Z,1.50
2023-06-24T10:11:55.228Z,1.33
2023-06-24T10:14:22.305Z,1.70
2023-06-24T10:16:50.566Z,1.25
2023-06-24T10:19:23.414Z,2.63
2023-06-24T10:22:00.950Z,1.90
2023-06-24T10:24:32.552Z,1.35
2023-06-24T10:27:10.593Z,1.10
2023-06-24T10:29:38.807Z,1.50
2023-06-24T10:32:10.026Z,1.40
2023-06-24T10:34:43.548Z,1.75
2023-06-24T10:37:21.611Z,0.90
2023-06-24T10:39:59.486Z,1.17
2023-06-24T10:42:48.007Z,1.98
2023-06-24T10:45:17.747Z,1.63
2023-06-24T10:47:49.796Z,0.90
2023-06-24T10:50:20.044Z,1.52
2023-06-24T10:52:56.478Z,0.95
2023-06-24T10:55:28.623Z,2.33
2023-06-24T10:57:55.780Z,1.17
2023-06-24T11:00:23.849Z,1.52
2023-06-24T11:02:51.086Z,1.10
2023-06-24T11:05:18.136Z,1.10
2023-06-24T11:07:47.167Z,1.08
2023-06-24T11:10:17.253Z,1.25
2023-06-24T11:12:45.073Z,1.30
2023-06-24T11:15:14.316Z,0.90
2023-06-24T11:17:42.737Z,2.30
2023-06-24T11:20:15.160Z,1.45
2023-06-24T11:22:43.776Z,0.95
2023-06-24T11:25:23.049Z,1.42
2023-06-24T11:27:55.724Z,1.88
2023-06-24T11:30:22.832Z,1.55
2023-06-24T11:32:51.227Z,1.60
2023-06-24T11:35:18.432Z,1.52
2023-06-24T11:37:47.452Z,1.17
2023-06-24T11:40:17.665Z,2.50
2023-06-24T11:42:46.382Z,1.90
2023-06-24T11:45:16.939Z,0.93
2023-06-24T11:47:44.390Z,1.35
2023-06-24T11:50:12.533Z,1.42
2023-06-24T11:52:47.893Z,1.60
2023-06-24T11:55:18.122Z,1.33
2023-06-24T11:58:02.308Z,1.83
2023-06-24T12:00:43.981Z,1.15
2023-06-24T12:03:12.311Z,1.38
2023-06-24T12:05:46.168Z,1.80
2023-06-24T12:08:16.828Z,1.48
2023-06-24T12:10:45.626Z,1.23
2023-06-24T12:13:12.921Z,1.60
2023-06-24T12:15:39.992Z,2.35
2023-06-24T12:18:07.504Z,1.00
2023-06-24T12:20:38.146Z,1.33
2023-06-24T12:23:06.393Z,1.10
2023-06-24T12:25:33.958Z,2.13
2023-06-24T12:28:01.294Z,1.45
2023-06-24T12:30:29.192Z,1.15
2023-06-24T12:32:56.531Z,1.73
2023-06-24T12:35:26.838Z,1.20
2023-06-24T12:37:54.157Z,1.35
2023-06-24T12:40:21.338Z,1.85
2023-06-24T12:42:48.312Z,2.85
2023-06-24T12:45:15.394Z,1.75
2023-06-24T12:47:42.705Z,3.90
2023-06-24T12:50:10.370Z,1.20
2023-06-24T12:52:38.465Z,2.95
2023-06-24T12:55:08.220Z,1.35
2023-06-24T12:57:36.207Z,1.30
2023-06-24T13:00:06.713Z,1.50
2023-06-24T13:02:34.475Z,1.45
2023-06-24T13:05:01.419Z,1.50
2023-06-24T13:07:28.530Z,1.42
2023-06-24T13:09:55.595Z,1.65
2023-06-24T13:12:22.716Z,1.75
2023-06-24T13:14:49.783Z,1.33
2023-06-24T13:17:16.976Z,1.38
2023-06-24T13:19:43.894Z,1.58
2023-06-24T13:22:10.824Z,1.50
2023-06-24T13:24:37.755Z,1.60
2023-06-24T13:27:04.901Z,1.73
2023-06-24T13:29:32.850Z,1.30
2023-06-24T13:32:00.333Z,2.67
2023-06-24T13:34:27.299Z,2.00
2023-06-24T13:37:01.144Z,1.35
2023-06-24T13:39:28.828Z,1.33
2023-06-24T13:41:57.457Z,1.52
2023-06-24T13:44:24.990Z,1.58
2023-06-24T13:46:54.637Z,1.42
2023-06-24T13:49:21.968Z,2.25
2023-06-24T13:51:48.868Z,1.35
2023-06-24T13:54:15.995Z,1.90
2023-06-24T13:56:43.038Z,1.60
2023-06-24T13:59:11.748Z,1.67
2023-06-24T14:01:38.944Z,2.17
2023-06-24T14:04:06.461Z,2.60
2023-06-24T14:06:33.664Z,1.80
2023-06-24T14:09:00.707Z,1.98
2023-06-24T14:11:27.714Z,1.80
2023-06-24T14:13:56.315Z,3.60
2023-06-24T14:16:23.763Z,2.75
2023-06-24T14:18:51.047Z,3.50
2023-06-24T14:21:18.221Z,2.35
2023-06-24T14:23:45.439Z,3.08
2023-06-24T14:26:12.573Z,1.80
2023-06-24T14:28:39.611Z,3.22
2023-06-24T14:31:06.564Z,2.85
2023-06-24T14:33:33.478Z,3.72
2023-06-24T14:36:00.509Z,2.17
2023-06-24T14:38:29.386Z,1.73
2023-06-24T14:40:58.324Z,1.60
2023-06-24T14:43:25.498Z,2.30
2023-06-24T14:45:54.048Z,1.83
2023-06-24T14:48:20.992Z,1.83
2023-06-24T14:50:48.060Z,2.35
2023-06-24T14:53:15.042Z,1.90
2023-06-24T14:55:42.063Z,1.98
2023-06-24T14:58:09.162Z,3.60
2023-06-24T15:00:36.322Z,1.60
2023-06-24T15:03:03.638Z,1.63
2023-06-24T15:05:30.841Z,1.55
2023-06-24T15:07:57.783Z,3.42
2023-06-24T15:10:24.720Z,2.67
2023-06-24T15:12:51.715Z,1.77
2023-06-24T15:15:19.162Z,1.55
2023-06-24T15:17:46.588Z,1.95
2023-06-24T15:20:14.228Z,2.75
2023-06-24T15:22:42.259Z,1.75
2023-06-24T15:25:10.073Z,1.83
2023-06-24T15:27:37.214Z,1.98
2023-06-24T15:30:04.768Z,1.80
2023-06-24T15:32:31.731Z,3.13
2023-06-24T15:34:58.716Z,2.58
2023-06-24T15:37:25.815Z,2.85
2023-06-24T15:39:52.899Z,4.05
2023-06-24T15:42:19.860Z,2.40
2023-06-24T15:44:46.780Z,2.20
2023-06-24T15:47:13.698Z,3.25
2023-06-24T15:49:40.716Z,3.13
2023-06-24T15:52:07.874Z,3.90
2023-06-24T15:54:34.787Z,4.30
2023-06-24T15:57:02.063Z,3.03
2023-06-24T15:59:29.003Z,3.22
2023-06-24T16:01:55.914Z,2.20
2023-06-24T16:04:23.238Z,2.15
2023-06-24T16:06:50.228Z,3.28
2023-06-24T16:09:17.248Z,2.50
2023-06-24T16:11:44.230Z,3.60
2023-06-24T16:14:11.188Z,3.63
2023-06-24T16:16:38.320Z,3.15
2023-06-24T16:19:05.343Z,2.05
2023-06-24T16:21:34.139Z,3.17
2023-06-24T16:24:01.220Z,1.77
2023-06-24T16:26:30.550Z,3.80
2023-06-24T16:29:01.486Z,4.28
2023-06-24T16:31:28.476Z,1.83
2023-06-24T16:33:55.503Z,2.00
2023-06-24T16:36:22.463Z,3.88
2023-06-24T16:38:49.421Z,2.85
2023-06-24T16:41:16.387Z,3.03
2023-06-24T16:43:48.385Z,4.38
2023-06-24T16:46:15.647Z,2.60
2023-06-24T16:48:42.675Z,2.10
2023-06-24T16:51:09.602Z,1.77
2023-06-24T16:53:36.590Z,1.38
2023-06-24T16:56:03.636Z,1.83
2023-06-24T16:58:30.637Z,4.00
2023-06-24T17:00:57.539Z,5.43
2023-06-24T17:03:24.605Z,1.65
2023-06-24T17:05:51.606Z,3.20
2023-06-24T17:08:18.643Z,2.35
2023-06-24T17:10:45.982Z,2.65
2023-06-24T17:13:12.967Z,2.00
2023-06-24T17:15:40.126Z,2.13
2023-06-24T17:18:07.178Z,3.20
2023-06-24T17:20:34.339Z,3.55
2023-06-24T17:23:01.517Z,2.60
2023-06-24T17:25:28.509Z,2.22
2023-06-24T17:27:55.532Z,2.78
2023-06-24T17:30:22.512Z,2.92
2023-06-24T17:32:50.490Z,3.65
2023-06-24T17:35:17.548Z,5.20
2023-06-24T17:37:44.619Z,3.88
2023-06-24T17:40:11.927Z,3.75
2023-06-24T17:42:38.934Z,2.65
2023-06-24T17:45:07.013Z,4.47
2023-06-24T17:47:34.170Z,4.55
2023-06-24T17:50:01.134Z,3.83
2023-06-24T17:52:28.128Z,3.47
2023-06-24T17:54:55.099Z,6.45
2023-06-24T17:57:21.992Z,3.33
2023-06-24T17:59:48.964Z,4.55
2023-06-24T18:02:15.931Z,3.88
2023-06-24T18:04:42.880Z,2.75
2023-06-24T18:07:10.032Z,4.20
2023-06-24T18:09:37.028Z,3.92
2023-06-24T18:12:04.138Z,4.60
2023-06-24T18:14:31.105Z,3.83
2023-06-24T18:16:58.760Z,4.85
2023-06-24T18:19:25.734Z,3.10
2023-06-24T18:21:52.714Z,4.28
2023-06-24T18:24:19.785Z,4.55
2023-06-24T18:26:46.842Z,6.30
2023-06-24T18:29:13.793Z,3.00
2023-06-24T18:31:43.641Z,4.60
2023-06-24T18:34:13.752Z,2.72
2023-06-24T18:36:40.770Z,3.17
2023-06-24T18:39:07.726Z,3.58
2023-06-24T18:41:34.683Z,5.57
2023-06-24T18:44:04.190Z,4.50
2023-06-24T18:46:31.164Z,3.17
2023-06-24T18:48:58.190Z,6.25
2023-06-24T18:51:25.185Z,3.22
2023-06-24T18:53:52.135Z,2.90
2023-06-24T18:56:19.087Z,3.85
2023-06-24T18:58:46.017Z,4.22
2023-06-24T19:01:12.897Z,4.47
2023-06-24T19:03:40.376Z,5.35
2023-06-24T19:06:08.528Z,4.75
2023-06-24T19:08:35.475Z,5.47
2023-06-24T19:11:02.500Z,5.68
2023-06-24T19:13:29.534Z,4.00
2023-06-24T19:15:56.506Z,3.08
2023-06-24T19:18:23.460Z,3.55
2023-06-24T19:20:50.601Z,3.53
2023-06-24T19:23:17.574Z,5.50
2023-06-24T19:25:44.578Z,3.28
2023-06-24T19:28:11.558Z,4.35
2023-06-24T19:30:38.752Z,4.20
2023-06-24T19:33:07.879Z,3.85
2023-06-24T19:35:35.191Z,2.92
2023-06-24T19:38:02.541Z,3.35
2023-06-24T19:40:29.924Z,4.28
2023-06-24T19:42:57.253Z,4.75
2023-06-24T19:45:24.550Z,4.10
2023-06-24T19:47:53.395Z,4.35
2023-06-24T19:50:21.420Z,4.05
2023-06-24T19:52:48.815Z,3.08
2023-06-24T19:55:16.241Z,3.75
2023-06-24T19:57:43.688Z,5.22
2023-06-24T20:00:11.248Z,3.15
2023-06-24T20:02:38.749Z,5.03
2023-06-24T20:05:06.250Z,2.65
2023-06-24T20:07:33.766Z,2.72
2023-06-24T20:10:01.132Z,4.80
2023-06-24T20:12:28.453Z,3.72
2023-06-24T20:14:55.816Z,4.88
2023-06-24T20:17:23.195Z,3.85
2023-06-24T20:19:50.495Z,6.82
2023-06-24T20:22:17.932Z,4.28
2023-06-24T20:24:45.262Z,3.17
2023-06-24T20:27:12.622Z,6.65
2023-06-24T20:29:39.968Z,4.03
2023-06-24T20:32:07.432Z,4.93
2023-06-24T20:34:34.764Z,4.22
2023-06-24T20:37:02.058Z,7.00
2023-06-24T20:39:29.703Z,3.53
2023-06-24T20:41:58.190Z,4.55
2023-06-24T20:44:25.543Z,3.65
2023-06-24T20:46:53.055Z,3.88
2023-06-24T20:49:20.520Z,3.95
2023-06-24T20:51:50.284Z,4.25
2023-06-24T20:54:17.783Z,3.03
2023-06-24T20:56:45.227Z,5.43
2023-06-24T20:59:12.669Z,3.47
2023-06-24T21:01:40.059Z,3.72
2023-06-24T21:04:07.648Z,5.40
2023-06-24T21:06:34.984Z,4.57
2023-06-24T21:09:02.351Z,2.67
2023-06-24T21:11:29.674Z,2.85
2023-06-24T21:13:56.955Z,3.92
2023-06-24T21:16:25.214Z,4.85
2023-06-24T21:18:52.599Z,5.22
2023-06-24T21:21:19.917Z,3.30
2023-06-24T21:23:47.745Z,3.60
2023-06-24T21:26:15.034Z,3.88
2023-06-24T21:28:42.347Z,4.18
2023-06-24T21:31:09.989Z,2.45
2023-06-24T21:33:37.890Z,3.63
2023-06-24T21:36:05.327Z,3.55
2023-06-24T21:38:32.602Z,3.25
2023-06-24T21:40:59.922Z,3.83
2023-06-24T21:43:27.280Z,5.22
2023-06-24T21:45:54.672Z,3.83
2023-06-24T21:48:21.993Z,5.82
2023-06-24T21:50:49.380Z,2.22
2023-06-24T21:53:16.676Z,5.18
2023-06-24T21:55:43.952Z,3.70
2023-06-24T21:58:11.734Z,3.95
2023-06-24T22:00:39.358Z,3.08
2023-06-24T22:03:07.151Z,6.20
2023-06-24T22:05:36.294Z,6.05
2023-06-24T22:08:04.160Z,5.32
2023-06-24T22:10:31.746Z,4.13
2023-06-24T22:12:59.294Z,2.60
2023-06-24T22:15:26.596Z,4.70
2023-06-24T22:17:54.016Z,4.97
2023-06-24T22:20:21.506Z,6.43
2023-06-24T22:22:48.836Z,3.53
2023-06-24T22:25:16.236Z,5.10
2023-06-24T22:27:43.587Z,2.42
2023-06-24T22:30:11.037Z,5.43
2023-06-24T22:32:38.522Z,4.22
2023-06-24T22:35:06.113Z,4.63
2023-06-24T22:37:33.426Z,6.78
2023-06-24T22:40:00.766Z,5.78
2023-06-24T22:42:28.064Z,7.25
2023-06-24T22:44:55.364Z,5.80
2023-06-24T22:47:22.780Z,3.67
2023-06-24T22:49:50.128Z,3.60
2023-06-24T22:52:17.494Z,4.07
2023-06-24T22:54:44.869Z,3.30
2023-06-24T22:57:12.151Z,3.88
2023-06-24T22:59:39.426Z,4.63
2023-06-24T23:02:07.012Z,4.40
2023-06-24T23:04:34.803Z,4.07
2023-06-24T23:07:02.299Z,3.47
2023-06-24T23:09:29.775Z,7.90
2023-06-24T23:11:57.201Z,3.58
2023-06-24T23:14:24.776Z,3.47
2023-06-24T23:16:52.442Z,3.72
2023-06-24T23:19:20.095Z,3.00
2023-06-24T23:21:48.521Z,3.60
2023-06-24T23:24:16.219Z,4.30
2023-06-24T23:26:51.900Z,3.53
2023-06-24T23:29:22.317Z,4.10
2023-06-24T23:31:50.109Z,4.95
2023-06-24T23:34:18.581Z,3.97
2023-06-24T23:36:46.487Z,3.20
2023-06-24T23:39:14.596Z,6.03
2023-06-24T23:41:42.033Z,3.60
2023-06-24T23:44:09.709Z,6.43
2023-06-24T23:46:37.088Z,3.40
2023-06-24T23:49:04.452Z,5.55
2023-06-24T23:51:31.784Z,4.47
2023-06-24T23:53:59.130Z,4.07
2023-06-24T23:56:26.525Z,7.00
2023-06-24T23:58:53.815Z,6.22
